createdAt,value
2017-12-15T00:01:04.637Z,-0.46
2017-12-15T00:03:32.236Z,-0.53
2017-12-15T00:05:59.799Z,-0.56
2017-12-15T00:08:27.351Z,-0.61
2017-12-15T00:10:54.953Z,-0.62
2017-12-15T00:13:22.760Z,-0.60
2017-12-15T00:15:50.313Z,-0.49
2017-12-15T00:18:17.911Z,-0.49
2017-12-15T00:20:45.477Z,-0.55
2017-12-15T00:23:14.088Z,-0.49
2017-12-15T00:25:41.673Z,-0.46
2017-12-15T00:28:09.352Z,-0.59
2017-12-15T00:30:36.900Z,-0.59
2017-12-15T00:33:04.545Z,-0.54
2017-12-15T00:35:32.087Z,-0.64
2017-12-15T00:37:59.638Z,-0.60
2017-12-15T00:40:27.217Z,-0.45
2017-12-15T00:42:54.760Z,-0.45
2017-12-15T00:45:22.326Z,-0.53
2017-12-15T00:47:49.905Z,-0.56
2017-12-15T00:50:17.460Z,-0.59
2017-12-15T00:52:45.016Z,-0.68
2017-12-15T00:55:12.750Z,-0.75
2017-12-15T00:57:40.302Z,-0.65
2017-12-15T01:00:07.867Z,-0.67
2017-12-15T01:02:35.492Z,-0.71
2017-12-15T01:05:03.113Z,-0.70
2017-12-15T01:07:30.683Z,-0.69
2017-12-15T01:09:58.272Z,-0.54
2017-12-15T01:12:25.847Z,-0.54
2017-12-15T01:14:53.438Z,-0.50
2017-12-15T01:17:21.046Z,-0.44
2017-12-15T01:19:48.644Z,-0.31
2017-12-15T01:22:16.211Z,-0.27
2017-12-15T01:24:43.788Z,-0.34
2017-12-15T01:27:12.063Z,-0.35
2017-12-15T01:29:39.634Z,-0.38
2017-12-15T01:32:07.220Z,-0.37
2017-12-15T01:34:34.907Z,-0.42
2017-12-15T01:37:02.450Z,-0.46
2017-12-15T01:39:30.005Z,-0.30
2017-12-15T01:41:57.626Z,-0.24
2017-12-15T01:44:25.173Z,-0.29
2017-12-15T01:46:52.742Z,-0.45
2017-12-15T01:49:20.610Z,-0.44
2017-12-15T01:51:48.201Z,-0.50
2017-12-15T01:54:15.776Z,-0.49
2017-12-15T01:56:43.426Z,-0.50
2017-12-15T01:59:11.068Z,-0.45
2017-12-15T02:01:38.702Z,-0.50
2017-12-15T02:04:06.351Z,-0.47
2017-12-15T02:06:33.904Z,-0.39
2017-12-15T02:09:01.461Z,-0.45
2017-12-15T02:11:29.037Z,-0.45
2017-12-15T02:13:56.586Z,-0.44
2017-12-15T02:16:24.235Z,-0.51
2017-12-15T02:18:51.865Z,-0.56
2017-12-15T02:21:19.637Z,-0.54
2017-12-15T02:23:50.121Z,-0.58
2017-12-15T02:26:17.703Z,-0.60
2017-12-15T02:28:45.270Z,-0.65
2017-12-15T02:31:12.997Z,-0.70
2017-12-15T02:33:40.569Z,-0.75
2017-12-15T02:36:08.118Z,-0.74
2017-12-15T02:38:35.666Z,-0.74
2017-12-15T02:41:03.251Z,-0.83
2017-12-15T02:43:33.741Z,-0.84
2017-12-15T02:46:01.291Z,-0.75
2017-12-15T02:48:28.928Z,-0.78
2017-12-15T02:50:56.894Z,-0.86
2017-12-15T02:53:24.884Z,-0.78
2017-12-15T02:55:52.464Z,-0.76
2017-12-15T02:58:20.021Z,-0.85
2017-12-15T03:00:47.637Z,-0.97
2017-12-15T03:03:15.200Z,-1.05
2017-12-15T03:05:42.743Z,-1.09
2017-12-15T03:08:10.351Z,-1.14
2017-12-15T03:10:40.393Z,-1.18
2017-12-15T03:13:08.019Z,-1.13
2017-12-15T03:15:35.661Z,-1.14
2017-12-15T03:18:03.271Z,-1.17
2017-12-15T03:20:30.823Z,-1.20
2017-12-15T03:22:58.399Z,-1.22
2017-12-15T03:25:25.942Z,-1.25
2017-12-15T03:27:53.486Z,-1.16
2017-12-15T03:30:21.056Z,-1.07
2017-12-15T03:32:49.194Z,-1.06
2017-12-15T03:35:16.772Z,-1.04
2017-12-15T03:37:44.470Z,-0.97
2017-12-15T03:40:12.048Z,-0.90
2017-12-15T03:42:40.527Z,-0.85
2017-12-15T03:45:09.155Z,-0.69
2017-12-15T03:47:36.706Z,-0.43
2017-12-15T03:50:05.208Z,-0.30
2017-12-15T03:52:33.813Z,-0.27
2017-12-15T03:55:01.359Z,-0.35
2017-12-15T03:57:44.002Z,-0.44
2017-12-15T04:00:11.551Z,-0.46
2017-12-15T04:02:39.148Z,-0.51
2017-12-15T04:05:06.705Z,-0.48
2017-12-15T04:07:35.032Z,-0.43
2017-12-15T04:10:02.602Z,-0.42
2017-12-15T04:12:30.165Z,-0.43
2017-12-15T04:14:57.722Z,-0.43
2017-12-15T04:17:25.939Z,-0.50
2017-12-15T04:19:53.513Z,-0.52
2017-12-15T04:22:21.062Z,-0.63
2017-12-15T04:24:48.677Z,-0.68
2017-12-15T04:27:16.236Z,-0.75
2017-12-15T04:29:43.827Z,-0.80
2017-12-15T04:32:11.439Z,-0.81
2017-12-15T04:34:39.022Z,-0.82
2017-12-15T04:37:06.618Z,-0.75
2017-12-15T04:39:34.218Z,-0.72
2017-12-15T04:42:01.754Z,-0.73
2017-12-15T04:44:29.326Z,-0.73
2017-12-15T04:46:56.911Z,-0.74
2017-12-15T04:49:27.542Z,-0.78
2017-12-15T04:51:55.099Z,-0.80
2017-12-15T04:54:22.700Z,-0.73
2017-12-15T04:56:50.295Z,-0.67
2017-12-15T04:59:17.855Z,-0.58
2017-12-15T05:01:45.479Z,-0.50
2017-12-15T05:04:13.046Z,-0.48
2017-12-15T05:06:40.617Z,-0.44
2017-12-15T05:09:08.206Z,-0.45
2017-12-15T05:11:35.780Z,-0.34
2017-12-15T05:14:03.360Z,-0.29
2017-12-15T05:16:30.977Z,-0.08
2017-12-15T05:19:00.130Z,0.12
2017-12-15T05:21:32.039Z,0.20
2017-12-15T05:24:00.448Z,0.25
2017-12-15T05:26:28.596Z,0.34
2017-12-15T05:28:56.278Z,0.35
2017-12-15T05:31:23.841Z,0.64
2017-12-15T05:33:51.383Z,0.81
2017-12-15T05:36:18.973Z,1.28
2017-12-15T05:38:46.568Z,1.69
2017-12-15T05:41:14.210Z,1.89
2017-12-15T05:43:41.774Z,2.11
2017-12-15T05:46:09.321Z,2.08
2017-12-15T05:48:36.898Z,2.20
2017-12-15T05:51:04.479Z,2.22
2017-12-15T05:53:32.036Z,2.13
2017-12-15T05:55:59.579Z,2.14
2017-12-15T05:58:27.162Z,2.02
2017-12-15T06:00:54.721Z,2.04
2017-12-15T06:03:22.421Z,2.03
2017-12-15T06:05:50.020Z,1.96
2017-12-15T06:08:17.575Z,2.00
2017-12-15T06:10:45.127Z,2.01
2017-12-15T06:13:13.256Z,1.92
2017-12-15T06:15:40.793Z,2.04
2017-12-15T06:18:08.337Z,1.93
2017-12-15T06:20:35.870Z,1.95
2017-12-15T06:23:03.417Z,1.97
2017-12-15T06:25:30.951Z,2.15
2017-12-15T06:27:58.535Z,2.21
2017-12-15T06:30:26.109Z,2.05
2017-12-15T06:32:53.653Z,2.08
2017-12-15T06:35:21.228Z,2.15
2017-12-15T06:37:48.789Z,2.21
2017-12-15T06:40:16.344Z,2.20
2017-12-15T06:42:44.582Z,2.37
2017-12-15T06:45:13.105Z,2.54
2017-12-15T06:47:41.053Z,2.49
2017-12-15T06:50:08.645Z,2.51
2017-12-15T06:52:38.282Z,2.47
2017-12-15T06:55:06.096Z,2.48
2017-12-15T06:57:33.932Z,2.43
2017-12-15T07:00:01.492Z,2.37
2017-12-15T07:02:29.064Z,2.54
2017-12-15T07:04:56.622Z,2.64
2017-12-15T07:07:24.748Z,2.64
2017-12-15T07:09:52.323Z,2.59
2017-12-15T07:12:20.276Z,2.74
2017-12-15T07:14:47.831Z,2.87
2017-12-15T07:17:15.431Z,2.85
2017-12-15T07:19:43.238Z,2.94
2017-12-15T07:22:11.266Z,3.00
2017-12-15T07:24:39.524Z,3.20
2017-12-15T07:27:07.218Z,3.04
2017-12-15T07:29:35.971Z,3.39
2017-12-15T07:32:03.604Z,3.49
2017-12-15T07:34:31.396Z,3.32
2017-12-15T07:36:59.019Z,3.29
2017-12-15T07:39:26.555Z,3.36
2017-12-15T07:41:54.115Z,3.32
2017-12-15T07:44:21.680Z,3.27
2017-12-15T07:46:50.191Z,3.44
2017-12-15T07:49:18.405Z,3.62
2017-12-15T07:51:46.049Z,3.79
2017-12-15T07:54:13.661Z,3.82
2017-12-15T07:56:41.209Z,3.84
2017-12-15T07:59:08.742Z,3.89
2017-12-15T08:01:36.436Z,3.98
2017-12-15T08:04:04.014Z,3.92
2017-12-15T08:06:31.586Z,3.81
2017-12-15T08:08:59.203Z,3.89
2017-12-15T08:11:27.616Z,3.92
2017-12-15T08:13:55.144Z,3.95
2017-12-15T08:16:23.271Z,3.97
2017-12-15T08:18:50.850Z,3.91
2017-12-15T08:21:19.118Z,3.89
2017-12-15T08:23:46.712Z,3.90
2017-12-15T08:26:14.481Z,3.84
2017-12-15T08:28:42.024Z,3.96
2017-12-15T08:31:10.087Z,3.94
2017-12-15T08:33:37.697Z,3.87
2017-12-15T08:36:05.390Z,3.81
2017-12-15T08:38:32.988Z,3.90
2017-12-15T08:41:00.536Z,3.78
2017-12-15T08:43:28.099Z,3.81
2017-12-15T08:45:55.701Z,3.91
2017-12-15T08:48:23.298Z,3.87
2017-12-15T08:50:50.843Z,3.90
2017-12-15T08:53:18.516Z,3.88
2017-12-15T08:55:46.068Z,3.85
2017-12-15T08:58:13.636Z,3.92
2017-12-15T09:00:41.223Z,3.87
2017-12-15T09:03:08.955Z,3.90
2017-12-15T09:05:37.416Z,3.91
2017-12-15T09:08:05.132Z,4.07
2017-12-15T09:10:32.690Z,4.00
2017-12-15T09:13:00.277Z,3.96
2017-12-15T09:15:27.844Z,4.01
2017-12-15T09:17:55.479Z,3.93
2017-12-15T09:20:23.053Z,3.91
2017-12-15T09:22:50.621Z,3.90
2017-12-15T09:25:18.166Z,3.92
2017-12-15T09:27:45.746Z,3.94
2017-12-15T09:30:13.343Z,3.90
2017-12-15T09:32:40.971Z,3.93
2017-12-15T09:35:08.549Z,3.91
2017-12-15T09:37:36.371Z,3.97
2017-12-15T09:40:03.936Z,3.94
2017-12-15T09:42:31.746Z,3.99
2017-12-15T09:44:59.316Z,3.96
2017-12-15T09:47:27.240Z,4.09
2017-12-15T09:49:54.800Z,4.00
2017-12-15T09:52:23.441Z,4.02
2017-12-15T09:54:51.040Z,4.04
2017-12-15T09:57:18.854Z,4.03
2017-12-15T09:59:46.527Z,4.02
2017-12-15T10:02:14.245Z,3.97
2017-12-15T10:04:41.789Z,4.01
2017-12-15T10:07:09.654Z,4.01
2017-12-15T10:09:37.257Z,3.93
2017-12-15T10:12:04.827Z,3.93
2017-12-15T10:14:32.367Z,3.93
2017-12-15T10:16:59.925Z,3.84
2017-12-15T10:19:27.796Z,3.92
2017-12-15T10:21:56.469Z,3.85
2017-12-15T10:24:24.430Z,3.82
2017-12-15T10:26:51.997Z,3.77
2017-12-15T10:29:20.027Z,3.71
2017-12-15T10:31:47.555Z,3.74
2017-12-15T10:34:15.440Z,3.77
2017-12-15T10:36:42.992Z,3.75
2017-12-15T10:39:10.704Z,3.77
2017-12-15T10:41:38.283Z,3.81
2017-12-15T10:44:05.811Z,3.76
2017-12-15T10:46:33.385Z,3.73
2017-12-15T10:49:00.935Z,3.72
2017-12-15T10:51:28.488Z,3.71
2017-12-15T10:53:56.045Z,3.72
2017-12-15T10:56:23.589Z,3.92
2017-12-15T10:58:51.130Z,3.96
2017-12-15T11:01:18.848Z,4.00
2017-12-15T11:03:46.905Z,4.01
2017-12-15T11:06:14.474Z,3.91
2017-12-15T11:08:42.359Z,3.87
2017-12-15T11:11:09.994Z,3.76
2017-12-15T11:13:38.596Z,3.77
2017-12-15T11:16:06.169Z,3.72
2017-12-15T11:18:33.710Z,3.70
2017-12-15T11:21:01.248Z,3.74
2017-12-15T11:23:28.896Z,3.77
2017-12-15T11:25:56.436Z,3.79
2017-12-15T11:28:23.998Z,3.76
2017-12-15T11:30:52.301Z,3.67
2017-12-15T11:33:20.140Z,3.74
2017-12-15T11:35:47.709Z,3.86
2017-12-15T11:38:15.291Z,3.88
2017-12-15T11:40:43.747Z,3.85
2017-12-15T11:43:11.361Z,3.88
2017-12-15T11:45:38.978Z,3.94
2017-12-15T11:48:08.469Z,3.89
2017-12-15T11:50:36.125Z,3.89
2017-12-15T11:53:03.717Z,3.85
2017-12-15T11:55:31.313Z,3.80
2017-12-15T11:57:58.861Z,3.80
2017-12-15T12:00:26.441Z,3.71
2017-12-15T12:02:54.006Z,3.85
2017-12-15T12:05:21.574Z,3.83
2017-12-15T12:07:49.134Z,3.66
2017-12-15T12:10:16.682Z,3.64
2017-12-15T12:12:44.233Z,3.57
2017-12-15T12:15:12.363Z,3.48
2017-12-15T12:17:39.993Z,3.50
2017-12-15T12:20:07.569Z,3.72
2017-12-15T12:22:35.121Z,3.99
2017-12-15T12:25:02.680Z,4.00
2017-12-15T12:27:30.270Z,3.85
2017-12-15T12:29:57.841Z,3.69
2017-12-15T12:32:25.414Z,3.68
2017-12-15T12:34:52.983Z,3.63
2017-12-15T12:37:20.587Z,3.69
2017-12-15T12:39:48.113Z,3.75
2017-12-15T12:42:15.651Z,3.75
2017-12-15T12:44:43.226Z,3.82
2017-12-15T12:47:11.504Z,3.81
2017-12-15T12:49:39.104Z,3.92
2017-12-15T12:52:07.625Z,3.99
2017-12-15T12:54:35.164Z,3.96
2017-12-15T12:57:02.734Z,3.88
2017-12-15T12:59:30.321Z,3.89
2017-12-15T13:01:57.856Z,4.02
2017-12-15T13:04:25.445Z,4.02
2017-12-15T13:06:53.023Z,3.91
2017-12-15T13:09:21.057Z,3.82
2017-12-15T13:11:48.734Z,3.87
2017-12-15T13:14:16.407Z,3.85
2017-12-15T13:16:43.955Z,3.83
2017-12-15T13:22:02.604Z,3.89
2017-12-15T13:24:30.148Z,3.86
2017-12-15T13:26:57.700Z,3.83
2017-12-15T13:29:25.366Z,3.93
2017-12-15T13:31:52.934Z,3.91
2017-12-15T13:34:20.473Z,3.90
2017-12-15T13:36:48.077Z,3.94
2017-12-15T13:39:15.620Z,3.93
2017-12-15T13:41:43.159Z,3.95
2017-12-15T13:44:10.793Z,3.84
2017-12-15T13:46:38.365Z,3.80
2017-12-15T13:49:06.069Z,3.71
2017-12-15T13:51:33.655Z,3.67
2017-12-15T13:54:01.205Z,3.72
2017-12-15T13:56:28.751Z,3.70
2017-12-15T13:58:56.364Z,3.62
2017-12-15T14:01:25.824Z,3.68
2017-12-15T14:03:53.360Z,3.67
2017-12-15T14:06:20.910Z,3.67
2017-12-15T14:08:48.484Z,3.63
2017-12-15T14:11:16.058Z,3.56
2017-12-15T14:13:43.602Z,3.53
2017-12-15T14:16:11.201Z,3.60
2017-12-15T14:18:38.751Z,3.57
2017-12-15T14:21:06.382Z,3.44
2017-12-15T14:23:33.991Z,3.42
2017-12-15T14:26:01.541Z,3.41
2017-12-15T14:28:29.098Z,3.43
2017-12-15T14:30:56.669Z,3.44
2017-12-15T14:33:24.222Z,3.42
2017-12-15T14:35:51.823Z,3.37
2017-12-15T14:38:19.395Z,3.36
2017-12-15T14:40:46.942Z,3.34
2017-12-15T14:43:14.876Z,3.29
2017-12-15T14:45:42.447Z,3.28
2017-12-15T14:48:09.992Z,3.25
2017-12-15T14:50:37.541Z,3.28
2017-12-15T14:53:05.211Z,3.31
2017-12-15T14:55:33.253Z,3.36
2017-12-15T14:58:00.828Z,3.43
2017-12-15T15:00:28.425Z,3.38
2017-12-15T15:02:55.966Z,3.38
2017-12-15T15:05:23.915Z,3.31
2017-12-15T15:07:51.895Z,3.39
2017-12-15T15:10:19.424Z,3.37
2017-12-15T15:12:47.635Z,3.43
2017-12-15T15:15:16.024Z,3.39
2017-12-15T15:17:44.889Z,3.38
2017-12-15T15:20:12.583Z,3.41
2017-12-15T15:22:40.195Z,3.33
2017-12-15T15:25:07.900Z,3.25
2017-12-15T15:27:35.826Z,3.21
2017-12-15T15:30:03.377Z,3.22
2017-12-15T15:32:30.924Z,3.21
2017-12-15T15:37:49.947Z,3.03
2017-12-15T15:40:17.504Z,2.99
2017-12-15T15:42:45.094Z,2.94
2017-12-15T15:45:12.924Z,2.96
2017-12-15T15:47:40.467Z,2.95
2017-12-15T15:50:08.061Z,3.00
2017-12-15T15:52:37.634Z,2.95
2017-12-15T15:55:05.198Z,3.01
2017-12-15T15:57:33.451Z,2.91
2017-12-15T16:00:02.229Z,2.90
2017-12-15T16:02:29.845Z,2.82
2017-12-15T16:04:57.390Z,2.78
2017-12-15T16:07:25.739Z,2.73
2017-12-15T16:09:53.352Z,2.73
2017-12-15T16:12:20.915Z,2.68
2017-12-15T16:14:48.512Z,2.76
2017-12-15T16:17:16.072Z,2.76
2017-12-15T16:19:43.626Z,2.79
2017-12-15T16:22:11.204Z,2.80
2017-12-15T16:24:38.796Z,2.78
2017-12-15T16:27:06.464Z,2.74
2017-12-15T16:29:34.052Z,2.94
2017-12-15T16:32:01.629Z,3.01
2017-12-15T16:34:29.189Z,2.98
2017-12-15T16:36:56.772Z,2.82
2017-12-15T16:39:24.337Z,2.58
2017-12-15T16:41:51.902Z,2.38
2017-12-15T16:44:19.484Z,2.29
2017-12-15T16:46:47.036Z,2.30
2017-12-15T16:49:14.631Z,2.38
2017-12-15T16:51:42.194Z,2.32
2017-12-15T16:54:09.844Z,2.29
2017-12-15T16:56:37.404Z,2.18
2017-12-15T16:59:04.984Z,2.07
2017-12-15T17:01:32.541Z,2.08
2017-12-15T17:04:00.143Z,2.11
2017-12-15T17:09:18.026Z,1.98
2017-12-15T17:11:45.606Z,1.90
2017-12-15T17:14:13.161Z,1.98
2017-12-15T17:16:40.744Z,2.04
2017-12-15T17:19:27.825Z,2.14
2017-12-15T17:21:55.422Z,2.07
2017-12-15T17:24:22.971Z,2.01
2017-12-15T17:26:50.536Z,1.88
2017-12-15T17:29:18.230Z,1.88
2017-12-15T17:31:45.780Z,1.84
2017-12-15T17:34:13.349Z,1.78
2017-12-15T17:36:41.216Z,1.76
2017-12-15T17:39:08.932Z,1.76
2017-12-15T17:41:37.374Z,1.67
2017-12-15T17:44:04.996Z,1.51
2017-12-15T17:46:32.556Z,1.51
2017-12-15T17:49:00.168Z,1.48
2017-12-15T17:51:27.833Z,1.43
2017-12-15T17:53:55.411Z,1.29
2017-12-15T17:56:23.615Z,1.34
2017-12-15T17:58:51.224Z,1.29
2017-12-15T18:01:18.768Z,1.36
2017-12-15T18:03:46.309Z,1.45
2017-12-15T18:06:13.932Z,1.54
2017-12-15T18:08:41.539Z,1.49
2017-12-15T18:11:09.629Z,1.55
2017-12-15T18:13:37.243Z,1.57
2017-12-15T18:16:04.805Z,1.48
2017-12-15T18:18:32.376Z,1.42
2017-12-15T18:20:59.952Z,1.32
2017-12-15T18:23:28.305Z,1.23
2017-12-15T18:25:55.864Z,1.18
2017-12-15T18:28:23.426Z,1.09
2017-12-15T18:30:51.015Z,1.04
2017-12-15T18:33:18.905Z,1.11
2017-12-15T18:35:46.464Z,1.23
2017-12-15T18:38:14.057Z,1.11
2017-12-15T18:40:41.601Z,1.08
2017-12-15T18:43:09.625Z,1.07
2017-12-15T18:45:37.296Z,1.09
2017-12-15T18:48:04.913Z,1.20
2017-12-15T18:50:32.430Z,1.28
2017-12-15T18:53:00.406Z,1.36
2017-12-15T18:55:27.972Z,1.35
2017-12-15T18:57:55.537Z,1.23
2017-12-15T19:00:23.181Z,1.32
2017-12-15T19:02:50.773Z,1.23
2017-12-15T19:05:18.550Z,1.19
2017-12-15T19:07:46.119Z,1.15
2017-12-15T19:10:13.681Z,1.17
2017-12-15T19:12:41.605Z,1.09
2017-12-15T19:15:09.584Z,1.00
2017-12-15T19:17:37.337Z,0.98
2017-12-15T19:20:04.895Z,0.94
2017-12-15T19:22:32.485Z,0.90
2017-12-15T19:25:00.042Z,0.91
2017-12-15T19:27:27.652Z,0.85
2017-12-15T19:29:55.258Z,0.77
2017-12-15T19:32:22.821Z,0.87
2017-12-15T19:34:50.382Z,0.91
2017-12-15T19:37:18.028Z,0.87
2017-12-15T19:39:45.611Z,0.86
2017-12-15T19:42:14.221Z,0.82
2017-12-15T19:44:41.796Z,1.04
2017-12-15T19:47:09.396Z,0.99
2017-12-15T19:49:36.962Z,0.80
2017-12-15T19:52:04.603Z,0.77
2017-12-15T19:54:32.183Z,0.84
2017-12-15T19:57:01.615Z,0.83
2017-12-15T19:59:29.214Z,0.81
2017-12-15T20:01:56.793Z,0.84
2017-12-15T20:04:24.929Z,0.93
2017-12-15T20:06:52.553Z,0.91
2017-12-15T20:09:20.110Z,0.86
2017-12-15T20:11:47.670Z,0.93
2017-12-15T20:14:15.242Z,0.97
2017-12-15T20:16:42.804Z,1.14
2017-12-15T20:19:10.583Z,1.15
2017-12-15T20:21:38.153Z,1.01
2017-12-15T20:24:05.738Z,1.00
2017-12-15T20:26:33.285Z,0.92
2017-12-15T20:29:00.865Z,0.82
2017-12-15T20:31:29.085Z,0.82
2017-12-15T20:33:56.651Z,0.96
2017-12-15T20:36:24.213Z,0.84
2017-12-15T20:38:51.784Z,0.81
2017-12-15T20:41:19.329Z,0.83
2017-12-15T20:43:46.879Z,0.82
2017-12-15T20:46:14.470Z,0.76
2017-12-15T20:48:42.061Z,0.76
2017-12-15T20:51:10.014Z,0.77
2017-12-15T20:53:37.627Z,0.76
2017-12-15T20:56:05.189Z,0.82
2017-12-15T20:58:32.761Z,0.81
2017-12-15T21:01:00.374Z,0.78
2017-12-15T21:03:28.016Z,0.81
2017-12-15T21:05:55.684Z,0.81
2017-12-15T21:08:23.238Z,0.76
2017-12-15T21:10:50.795Z,0.81
2017-12-15T21:13:18.387Z,0.77
2017-12-15T21:15:45.933Z,0.77
2017-12-15T21:18:13.486Z,0.76
2017-12-15T21:20:41.068Z,0.83
2017-12-15T21:23:08.791Z,0.90
2017-12-15T21:25:36.398Z,0.85
2017-12-15T21:28:03.970Z,0.86
2017-12-15T21:30:32.023Z,0.84
2017-12-15T21:32:59.605Z,0.87
2017-12-15T21:35:27.197Z,0.87
2017-12-15T21:37:54.776Z,1.00
2017-12-15T21:40:22.468Z,0.98
2017-12-15T21:42:50.062Z,0.92
2017-12-15T21:45:17.612Z,0.78
2017-12-15T21:47:45.150Z,0.78
2017-12-15T21:50:12.751Z,0.81
2017-12-15T21:52:40.318Z,0.97
2017-12-15T21:55:07.881Z,0.84
2017-12-15T21:57:36.647Z,0.60
2017-12-15T22:00:04.565Z,0.61
2017-12-15T22:02:32.130Z,0.59
2017-12-15T22:04:59.672Z,0.56
2017-12-15T22:07:27.260Z,0.45
2017-12-15T22:09:54.866Z,0.32
2017-12-15T22:12:22.404Z,0.29
2017-12-15T22:14:49.965Z,0.21
2017-12-15T22:20:08.559Z,0.12
2017-12-15T22:22:36.108Z,0.12
2017-12-15T22:25:03.665Z,0.22
2017-12-15T22:27:31.235Z,0.22
2017-12-15T22:29:58.806Z,0.26
2017-12-15T22:38:08.500Z,0.38
2017-12-15T22:40:36.062Z,0.19
2017-12-15T22:43:03.624Z,0.17
2017-12-15T22:45:31.224Z,0.11
2017-12-15T22:47:58.818Z,0.17
2017-12-15T22:50:26.369Z,0.12
2017-12-15T22:52:53.932Z,0.07
2017-12-15T22:55:21.496Z,0.03
2017-12-15T22:57:49.077Z,-0.04
2017-12-15T23:00:16.648Z,-0.05
2017-12-15T23:02:44.207Z,-0.05
2017-12-15T23:05:11.786Z,-0.05
2017-12-15T23:07:39.339Z,0.00
2017-12-15T23:10:06.898Z,-0.02
2017-12-15T23:12:34.477Z,-0.01
2017-12-15T23:15:02.028Z,0.01
2017-12-15T23:17:29.574Z,0.07
2017-12-15T23:19:57.140Z,0.10
2017-12-15T23:22:24.676Z,0.09
2017-12-15T23:24:52.224Z,0.09
2017-12-15T23:27:19.790Z,0.11
2017-12-15T23:29:47.343Z,0.32
2017-12-15T23:32:14.893Z,0.33
2017-12-15T23:34:42.479Z,0.34
2017-12-15T23:37:12.190Z,0.40
2017-12-15T23:39:39.861Z,0.37
2017-12-15T23:42:07.438Z,0.28
2017-12-15T23:44:34.981Z,0.31
2017-12-15T23:47:02.549Z,0.28
2017-12-15T23:49:30.172Z,0.37
2017-12-15T23:51:57.719Z,0.32
2017-12-15T23:54:37.046Z,0.24
2017-12-15T23:57:04.711Z,0.22
2017-12-15T23:59:32.265Z,0.21
